Mc Connelsville, Ohio
Current Conditions -  °F | °C
As of 9:53 AM on Thursday 18 Dec 2014 (Local Time) from KZZV Reporting Station
Overcast Overcast  
Wind Chill: 22°   Ceiling: 1900
Heat Index: 27°   Visibility: 10mi
Dew Point: 19°   Wind: 5mph
Humidity: 72%   Direction: 270°W
Pressure: 30.25"   Gusts: NA
Location:  39.67°N, 81.8376°W
Report Text: KZZV 181453Z AUTO 27004KT 10SM OVC019 M03/M07 A3025 RMK AO2 SLP255 T10281072 53008
Loading
Personal Weather Stations






























Interactive Weather Map New forecast layout! Learn more

10-Day Weather Forecast

Advertisements
Track Severe Weather on mobile